sensor_id;sensor_type;location;lat;lon;timestamp;temperature;humidity
35085;SHT85;21267;51.032;6.998;2022-10-04T00:01:48;9.50;93.61
35085;SHT85;21267;51.032;6.998;2022-10-04T00:09:33;9.46;93.52
35085;SHT85;21267;51.032;6.998;2022-10-04T00:12:03;9.36;93.63
35085;SHT85;21267;51.032;6.998;2022-10-04T00:14:38;9.40;93.72
35085;SHT85;21267;51.032;6.998;2022-10-04T00:17:13;9.43;93.66
35085;SHT85;21267;51.032;6.998;2022-10-04T00:19:45;9.44;93.85
35085;SHT85;21267;51.032;6.998;2022-10-04T00:22:21;9.48;93.48
35085;SHT85;21267;51.032;6.998;2022-10-04T00:27:37;9.57;93.16
35085;SHT85;21267;51.032;6.998;2022-10-04T00:38:14;9.53;93.24
35085;SHT85;21267;51.032;6.998;2022-10-04T00:40:47;9.58;93.13
35085;SHT85;21267;51.032;6.998;2022-10-04T00:43:23;9.50;93.16
35085;SHT85;21267;51.032;6.998;2022-10-04T00:45:54;9.50;93.36
35085;SHT85;21267;51.032;6.998;2022-10-04T00:51:01;9.50;93.41
35085;SHT85;21267;51.032;6.998;2022-10-04T00:56:00;9.43;93.84
35085;SHT85;21267;51.032;6.998;2022-10-04T00:58:34;9.43;93.86
35085;SHT85;21267;51.032;6.998;2022-10-04T01:01:02;9.44;93.72
35085;SHT85;21267;51.032;6.998;2022-10-04T01:03:37;9.36;93.94
35085;SHT85;21267;51.032;6.998;2022-10-04T01:06:07;9.34;93.84
35085;SHT85;21267;51.032;6.998;2022-10-04T01:08:47;9.34;93.94
35085;SHT85;21267;51.032;6.998;2022-10-04T01:11:23;9.36;93.95
35085;SHT85;21267;51.032;6.998;2022-10-04T01:13:57;9.33;93.94
35085;SHT85;21267;51.032;6.998;2022-10-04T01:16:28;9.33;93.90
35085;SHT85;21267;51.032;6.998;2022-10-04T01:24:35;9.29;93.95
35085;SHT85;21267;51.032;6.998;2022-10-04T01:27:02;9.30;94.18
35085;SHT85;21267;51.032;6.998;2022-10-04T01:29:30;9.26;94.07
35085;SHT85;21267;51.032;6.998;2022-10-04T01:31:59;9.32;93.75
35085;SHT85;21267;51.032;6.998;2022-10-04T01:34:27;9.26;94.01
35085;SHT85;21267;51.032;6.998;2022-10-04T01:36:58;9.26;94.19
35085;SHT85;21267;51.032;6.998;2022-10-04T01:39:27;9.26;94.27
35085;SHT85;21267;51.032;6.998;2022-10-04T01:42:08;9.19;94.22
35085;SHT85;21267;51.032;6.998;2022-10-04T01:44:54;9.26;94.02
35085;SHT85;21267;51.032;6.998;2022-10-04T01:47:26;9.19;94.07
35085;SHT85;21267;51.032;6.998;2022-10-04T01:49:57;9.29;94.03
35085;SHT85;21267;51.032;6.998;2022-10-04T01:52:32;9.30;93.96
35085;SHT85;21267;51.032;6.998;2022-10-04T01:55:23;9.26;93.89
35085;SHT85;21267;51.032;6.998;2022-10-04T01:58:08;9.18;93.99
35085;SHT85;21267;51.032;6.998;2022-10-04T02:00:44;9.12;94.29
35085;SHT85;21267;51.032;6.998;2022-10-04T02:03:18;9.13;94.37
35085;SHT85;21267;51.032;6.998;2022-10-04T02:05:50;9.16;94.35
35085;SHT85;21267;51.032;6.998;2022-10-04T02:08:24;9.13;94.35
35085;SHT85;21267;51.032;6.998;2022-10-04T02:10:52;9.12;94.64
35085;SHT85;21267;51.032;6.998;2022-10-04T02:13:21;9.19;94.37
35085;SHT85;21267;51.032;6.998;2022-10-04T02:15:49;9.23;94.21
35085;SHT85;21267;51.032;6.998;2022-10-04T02:18:18;9.16;94.31
35085;SHT85;21267;51.032;6.998;2022-10-04T02:20:48;9.24;94.18
35085;SHT85;21267;51.032;6.998;2022-10-04T02:23:17;9.19;94.02
35085;SHT85;21267;51.032;6.998;2022-10-04T02:25:45;9.19;94.18
35085;SHT85;21267;51.032;6.998;2022-10-04T02:28:12;9.19;94.36
35085;SHT85;21267;51.032;6.998;2022-10-04T02:30:46;9.13;94.64
35085;SHT85;21267;51.032;6.998;2022-10-04T02:33:42;9.08;94.69
35085;SHT85;21267;51.032;6.998;2022-10-04T02:36:10;9.01;94.88
35085;SHT85;21267;51.032;6.998;2022-10-04T02:38:54;9.05;94.90
35085;SHT85;21267;51.032;6.998;2022-10-04T02:41:59;9.05;95.01
35085;SHT85;21267;51.032;6.998;2022-10-04T02:52:01;8.86;95.13
35085;SHT85;21267;51.032;6.998;2022-10-04T02:54:36;8.88;95.21
35085;SHT85;21267;51.032;6.998;2022-10-04T02:57:04;8.91;95.24
35085;SHT85;21267;51.032;6.998;2022-10-04T02:59:31;8.93;95.21
35085;SHT85;21267;51.032;6.998;2022-10-04T03:02:01;8.91;95.15
35085;SHT85;21267;51.032;6.998;2022-10-04T03:04:36;8.88;95.22
35085;SHT85;21267;51.032;6.998;2022-10-04T03:07:05;8.82;95.24
35085;SHT85;21267;51.032;6.998;2022-10-04T03:09:40;8.92;94.99
35085;SHT85;21267;51.032;6.998;2022-10-04T03:12:09;8.93;94.94
35085;SHT85;21267;51.032;6.998;2022-10-04T03:14:38;8.92;95.06
35085;SHT85;21267;51.032;6.998;2022-10-04T03:17:06;8.89;95.06
35085;SHT85;21267;51.032;6.998;2022-10-04T03:19:33;8.98;95.15
35085;SHT85;21267;51.032;6.998;2022-10-04T03:22:06;9.12;94.81
35085;SHT85;21267;51.032;6.998;2022-10-04T03:24:43;8.96;94.80
35085;SHT85;21267;51.032;6.998;2022-10-04T03:27:19;8.93;95.00
35085;SHT85;21267;51.032;6.998;2022-10-04T03:29:47;8.89;95.08
35085;SHT85;21267;51.032;6.998;2022-10-04T03:32:17;8.92;95.12
35085;SHT85;21267;51.032;6.998;2022-10-04T03:34:52;8.86;95.26
35085;SHT85;21267;51.032;6.998;2022-10-04T03:37:21;8.91;95.27
35085;SHT85;21267;51.032;6.998;2022-10-04T03:39:50;8.91;95.41
35085;SHT85;21267;51.032;6.998;2022-10-04T03:42:23;9.05;95.03
35085;SHT85;21267;51.032;6.998;2022-10-04T03:44:53;8.98;94.89
35085;SHT85;21267;51.032;6.998;2022-10-04T03:47:28;8.98;94.90
35085;SHT85;21267;51.032;6.998;2022-10-04T03:49:58;9.03;94.63
35085;SHT85;21267;51.032;6.998;2022-10-04T03:52:31;8.85;94.83
35085;SHT85;21267;51.032;6.998;2022-10-04T03:55:01;8.83;95.05
35085;SHT85;21267;51.032;6.998;2022-10-04T03:57:29;8.78;95.19
35085;SHT85;21267;51.032;6.998;2022-10-04T03:59:57;8.74;95.34
35085;SHT85;21267;51.032;6.998;2022-10-04T04:02:41;8.72;95.44
35085;SHT85;21267;51.032;6.998;2022-10-04T04:05:27;8.65;95.56
35085;SHT85;21267;51.032;6.998;2022-10-04T04:08:05;8.67;95.60
35085;SHT85;21267;51.032;6.998;2022-10-04T04:10:36;8.65;95.62
35085;SHT85;21267;51.032;6.998;2022-10-04T04:15:49;8.69;95.68
35085;SHT85;21267;51.032;6.998;2022-10-04T04:18:21;8.65;95.73
35085;SHT85;21267;51.032;6.998;2022-10-04T04:20:50;8.71;95.66
35085;SHT85;21267;51.032;6.998;2022-10-04T04:23:30;8.75;95.48
35085;SHT85;21267;51.032;6.998;2022-10-04T04:28:47;8.71;95.52
35085;SHT85;21267;51.032;6.998;2022-10-04T04:34:04;8.67;95.64
35085;SHT85;21267;51.032;6.998;2022-10-04T04:36:39;8.61;95.62
35085;SHT85;21267;51.032;6.998;2022-10-04T04:39:20;8.62;95.65
35085;SHT85;21267;51.032;6.998;2022-10-04T04:42:10;8.60;95.62
35085;SHT85;21267;51.032;6.998;2022-10-04T04:44:53;8.71;95.41
35085;SHT85;21267;51.032;6.998;2022-10-04T04:47:42;8.57;95.43
35085;SHT85;21267;51.032;6.998;2022-10-04T04:50:13;8.55;95.66
35085;SHT85;21267;51.032;6.998;2022-10-04T04:53:15;8.61;95.64
35085;SHT85;21267;51.032;6.998;2022-10-04T04:56:02;8.60;95.53
35085;SHT85;21267;51.032;6.998;2022-10-04T04:58:33;8.53;95.59
35085;SHT85;21267;51.032;6.998;2022-10-04T05:03:30;8.54;95.59
35085;SHT85;21267;51.032;6.998;2022-10-04T05:05:59;8.57;95.55
35085;SHT85;21267;51.032;6.998;2022-10-04T05:08:30;8.43;95.71
35085;SHT85;21267;51.032;6.998;2022-10-04T05:11:08;8.44;95.81
35085;SHT85;21267;51.032;6.998;2022-10-04T05:16:44;8.47;95.74
35085;SHT85;21267;51.032;6.998;2022-10-04T05:19:16;8.38;95.76
35085;SHT85;21267;51.032;6.998;2022-10-04T05:21:47;8.48;95.78
35085;SHT85;21267;51.032;6.998;2022-10-04T05:24:27;8.48;95.71
35085;SHT85;21267;51.032;6.998;2022-10-04T05:27:01;8.43;95.60
35085;SHT85;21267;51.032;6.998;2022-10-04T05:29:37;8.51;95.52
35085;SHT85;21267;51.032;6.998;2022-10-04T05:32:37;8.50;95.44
35085;SHT85;21267;51.032;6.998;2022-10-04T05:35:19;8.47;95.45
35085;SHT85;21267;51.032;6.998;2022-10-04T05:38:04;8.33;95.64
35085;SHT85;21267;51.032;6.998;2022-10-04T05:46:20;8.31;95.93
35085;SHT85;21267;51.032;6.998;2022-10-04T05:48:52;8.29;95.94
35085;SHT85;21267;51.032;6.998;2022-10-04T05:51:25;8.26;95.99
35085;SHT85;21267;51.032;6.998;2022-10-04T05:53:55;8.29;95.97
35085;SHT85;21267;51.032;6.998;2022-10-04T06:00:01;8.31;95.73
35085;SHT85;21267;51.032;6.998;2022-10-04T06:05:51;8.38;95.67
35085;SHT85;21267;51.032;6.998;2022-10-04T06:22:18;8.43;95.22
35085;SHT85;21267;51.032;6.998;2022-10-04T06:24:56;8.54;95.10
35085;SHT85;21267;51.032;6.998;2022-10-04T06:36:45;8.83;94.32
35085;SHT85;21267;51.032;6.998;2022-10-04T06:47:52;9.23;93.32
35085;SHT85;21267;51.032;6.998;2022-10-04T06:50:55;9.29;93.24
35085;SHT85;21267;51.032;6.998;2022-10-04T06:57:03;9.50;92.50
35085;SHT85;21267;51.032;6.998;2022-10-04T07:02:19;9.82;91.45
35085;SHT85;21267;51.032;6.998;2022-10-04T07:05:12;9.91;90.93
35085;SHT85;21267;51.032;6.998;2022-10-04T07:07:43;9.99;90.92
35085;SHT85;21267;51.032;6.998;2022-10-04T07:19:13;10.08;90.48
35085;SHT85;21267;51.032;6.998;2022-10-04T07:21:13;10.22;90.48
35085;SHT85;21267;51.032;6.998;2022-10-04T07:23:57;10.32;90.30
35085;SHT85;21267;51.032;6.998;2022-10-04T07:26:48;10.79;89.00
35085;SHT85;21267;51.032;6.998;2022-10-04T07:29:19;10.88;88.25
35085;SHT85;21267;51.032;6.998;2022-10-04T07:37:57;10.84;88.96
35085;SHT85;21267;51.032;6.998;2022-10-04T07:40:41;11.11;88.42
35085;SHT85;21267;51.032;6.998;2022-10-04T07:43:13;11.24;87.95
35085;SHT85;21267;51.032;6.998;2022-10-04T07:45:46;11.52;87.53
35085;SHT85;21267;51.032;6.998;2022-10-04T07:48:15;11.43;86.91
35085;SHT85;21267;51.032;6.998;2022-10-04T07:53:24;11.39;87.18
35085;SHT85;21267;51.032;6.998;2022-10-04T07:56:00;11.29;87.20
35085;SHT85;21267;51.032;6.998;2022-10-04T07:58:51;11.35;87.42
35085;SHT85;21267;51.032;6.998;2022-10-04T08:04:26;11.34;86.72
35085;SHT85;21267;51.032;6.998;2022-10-04T08:07:06;11.32;87.05
35085;SHT85;21267;51.032;6.998;2022-10-04T08:12:33;11.17;86.87
35085;SHT85;21267;51.032;6.998;2022-10-04T08:15:54;11.22;86.92
35085;SHT85;21267;51.032;6.998;2022-10-04T08:18:18;11.35;87.07
35085;SHT85;21267;51.032;6.998;2022-10-04T08:20:52;11.73;86.17
35085;SHT85;21267;51.032;6.998;2022-10-04T08:26:18;12.27;84.28
35085;SHT85;21267;51.032;6.998;2022-10-04T08:37:34;11.96;85.47
35085;SHT85;21267;51.032;6.998;2022-10-04T08:48:39;12.88;83.37
35085;SHT85;21267;51.032;6.998;2022-10-04T08:57:12;14.25;77.88
35085;SHT85;21267;51.032;6.998;2022-10-04T09:16:45;15.86;71.58
35085;SHT85;21267;51.032;6.998;2022-10-04T09:22:15;16.65;69.88
35085;SHT85;21267;51.032;6.998;2022-10-04T09:33:01;17.55;66.61
35085;SHT85;21267;51.032;6.998;2022-10-04T09:39:03;17.87;66.52
35085;SHT85;21267;51.032;6.998;2022-10-04T09:50:08;19.26;63.17
35085;SHT85;21267;51.032;6.998;2022-10-04T09:55:39;19.66;61.09
35085;SHT85;21267;51.032;6.998;2022-10-04T10:54:36;20.56;58.42
35085;SHT85;21267;51.032;6.998;2022-10-04T11:00:12;20.21;57.69
35085;SHT85;21267;51.032;6.998;2022-10-04T11:05:28;20.05;58.81
35085;SHT85;21267;51.032;6.998;2022-10-04T11:10:56;20.59;56.10
35085;SHT85;21267;51.032;6.998;2022-10-04T11:19:45;20.29;57.21
35085;SHT85;21267;51.032;6.998;2022-10-04T11:33:40;21.37;55.89
35085;SHT85;21267;51.032;6.998;2022-10-04T11:42:47;21.64;55.20
35085;SHT85;21267;51.032;6.998;2022-10-04T11:51:11;22.03;53.93
35085;SHT85;21267;51.032;6.998;2022-10-04T11:59:26;21.81;53.98
35085;SHT85;21267;51.032;6.998;2022-10-04T12:05:22;23.05;52.24
35085;SHT85;21267;51.032;6.998;2022-10-04T12:08:00;22.48;53.14
35085;SHT85;21267;51.032;6.998;2022-10-04T12:10:41;22.51;53.73
35085;SHT85;21267;51.032;6.998;2022-10-04T12:30:56;22.98;52.24
35085;SHT85;21267;51.032;6.998;2022-10-04T12:39:35;22.61;53.17
35085;SHT85;21267;51.032;6.998;2022-10-04T12:50:48;22.45;53.17
35085;SHT85;21267;51.032;6.998;2022-10-04T12:53:42;22.61;53.57
35085;SHT85;21267;51.032;6.998;2022-10-04T13:04:49;22.94;52.60
35085;SHT85;21267;51.032;6.998;2022-10-04T13:10:18;23.35;52.68
35085;SHT85;21267;51.032;6.998;2022-10-04T13:15:43;22.37;53.72
35085;SHT85;21267;51.032;6.998;2022-10-04T13:18:52;23.12;52.53
35085;SHT85;21267;51.032;6.998;2022-10-04T13:24:34;23.74;51.33
35085;SHT85;21267;51.032;6.998;2022-10-04T13:33:01;23.33;51.73
35085;SHT85;21267;51.032;6.998;2022-10-04T13:49:29;23.71;50.39
35085;SHT85;21267;51.032;6.998;2022-10-04T14:09:09;24.73;49.81
35085;SHT85;21267;51.032;6.998;2022-10-04T14:14:58;24.52;49.69
35085;SHT85;21267;51.032;6.998;2022-10-04T14:23:25;23.43;51.23
35085;SHT85;21267;51.032;6.998;2022-10-04T14:29:02;24.16;50.97
35085;SHT85;21267;51.032;6.998;2022-10-04T14:34:37;24.25;50.86
35085;SHT85;21267;51.032;6.998;2022-10-04T14:51:41;25.03;49.99
35085;SHT85;21267;51.032;6.998;2022-10-04T15:00:22;24.14;51.37
35085;SHT85;21267;51.032;6.998;2022-10-04T15:03:12;23.94;52.41
35085;SHT85;21267;51.032;6.998;2022-10-04T15:05:56;24.20;51.34
35085;SHT85;21267;51.032;6.998;2022-10-04T15:11:37;24.51;51.51
35085;SHT85;21267;51.032;6.998;2022-10-04T15:14:32;23.84;52.70
35085;SHT85;21267;51.032;6.998;2022-10-04T15:17:06;23.45;54.42
35085;SHT85;21267;51.032;6.998;2022-10-04T15:19:54;23.25;55.15
35085;SHT85;21267;51.032;6.998;2022-10-04T15:22:27;23.52;53.95
35085;SHT85;21267;51.032;6.998;2022-10-04T15:24:56;23.08;55.13
35085;SHT85;21267;51.032;6.998;2022-10-04T15:27:34;23.43;54.46
35085;SHT85;21267;51.032;6.998;2022-10-04T15:46:47;22.64;57.14
35085;SHT85;21267;51.032;6.998;2022-10-04T15:50:14;22.26;58.32
35085;SHT85;21267;51.032;6.998;2022-10-04T15:52:54;22.39;57.89
35085;SHT85;21267;51.032;6.998;2022-10-04T16:01:05;22.84;57.31
35085;SHT85;21267;51.032;6.998;2022-10-04T16:15:35;21.23;62.05
35085;SHT85;21267;51.032;6.998;2022-10-04T16:18:51;21.04;63.64
35085;SHT85;21267;51.032;6.998;2022-10-04T16:21:03;20.35;65.03
35085;SHT85;21267;51.032;6.998;2022-10-04T16:23:41;19.92;66.90
35085;SHT85;21267;51.032;6.998;2022-10-04T16:28:48;19.66;67.75
35085;SHT85;21267;51.032;6.998;2022-10-04T16:31:23;19.81;67.27
35085;SHT85;21267;51.032;6.998;2022-10-04T16:36:57;19.26;69.27
35085;SHT85;21267;51.032;6.998;2022-10-04T16:39:46;19.06;69.58
35085;SHT85;21267;51.032;6.998;2022-10-04T16:42:40;18.84;71.57
35085;SHT85;21267;51.032;6.998;2022-10-04T16:56:20;18.29;72.70
35085;SHT85;21267;51.032;6.998;2022-10-04T16:58:56;18.43;72.17
35085;SHT85;21267;51.032;6.998;2022-10-04T17:01:40;18.29;72.41
35085;SHT85;21267;51.032;6.998;2022-10-04T17:09:57;17.93;73.60
35085;SHT85;21267;51.032;6.998;2022-10-04T17:18:10;17.76;73.98
35085;SHT85;21267;51.032;6.998;2022-10-04T17:26:41;17.45;74.98
35085;SHT85;21267;51.032;6.998;2022-10-04T17:29:40;17.31;75.48
35085;SHT85;21267;51.032;6.998;2022-10-04T17:35:03;17.11;76.18
35085;SHT85;21267;51.032;6.998;2022-10-04T17:40:28;16.89;76.69
35085;SHT85;21267;51.032;6.998;2022-10-04T17:43:26;16.86;77.03
35085;SHT85;21267;51.032;6.998;2022-10-04T17:48:47;16.72;77.56
35085;SHT85;21267;51.032;6.998;2022-10-04T17:51:42;16.56;78.06
35085;SHT85;21267;51.032;6.998;2022-10-04T17:58:44;16.29;78.99
35085;SHT85;21267;51.032;6.998;2022-10-04T18:01:35;16.18;79.32
35085;SHT85;21267;51.032;6.998;2022-10-04T18:04:25;16.10;79.49
35085;SHT85;21267;51.032;6.998;2022-10-04T18:07:00;16.03;79.71
35085;SHT85;21267;51.032;6.998;2022-10-04T18:09:40;15.94;79.75
35085;SHT85;21267;51.032;6.998;2022-10-04T18:12:23;15.89;79.70
35085;SHT85;21267;51.032;6.998;2022-10-04T18:17:37;15.81;79.67
35085;SHT85;21267;51.032;6.998;2022-10-04T18:20:18;15.73;79.84
35085;SHT85;21267;51.032;6.998;2022-10-04T18:25:40;15.69;79.75
35085;SHT85;21267;51.032;6.998;2022-10-04T18:38:41;15.47;80.17
35085;SHT85;21267;51.032;6.998;2022-10-04T18:43:50;15.28;80.54
35085;SHT85;21267;51.032;6.998;2022-10-04T18:46:19;15.24;80.53
35085;SHT85;21267;51.032;6.998;2022-10-04T18:48:55;15.21;80.44
35085;SHT85;21267;51.032;6.998;2022-10-04T18:51:37;15.11;80.52
35085;SHT85;21267;51.032;6.998;2022-10-04T19:00:01;15.21;80.36
35085;SHT85;21267;51.032;6.998;2022-10-04T19:02:55;15.15;80.15
35085;SHT85;21267;51.032;6.998;2022-10-04T19:11:05;14.80;82.47
35085;SHT85;21267;51.032;6.998;2022-10-04T19:16:17;14.60;83.12
35085;SHT85;21267;51.032;6.998;2022-10-04T19:19:07;14.80;82.51
35085;SHT85;21267;51.032;6.998;2022-10-04T19:22:02;14.52;83.23
35085;SHT85;21267;51.032;6.998;2022-10-04T19:38:07;14.38;81.43
35085;SHT85;21267;51.032;6.998;2022-10-04T19:40:43;14.40;81.05
35085;SHT85;21267;51.032;6.998;2022-10-04T19:44:08;14.40;80.84
35085;SHT85;21267;51.032;6.998;2022-10-04T19:49:02;14.43;80.59
35085;SHT85;21267;51.032;6.998;2022-10-04T19:51:45;14.33;81.16
35085;SHT85;21267;51.032;6.998;2022-10-04T19:54:30;14.30;80.83
35085;SHT85;21267;51.032;6.998;2022-10-04T19:57:04;14.29;80.73
35085;SHT85;21267;51.032;6.998;2022-10-04T19:59:39;14.25;80.68
35085;SHT85;21267;51.032;6.998;2022-10-04T20:02:12;14.23;80.64
35085;SHT85;21267;51.032;6.998;2022-10-04T20:04:39;14.30;80.28
35085;SHT85;21267;51.032;6.998;2022-10-04T20:07:20;14.22;80.42
35085;SHT85;21267;51.032;6.998;2022-10-04T20:12:40;14.15;80.43
35085;SHT85;21267;51.032;6.998;2022-10-04T20:17:45;14.13;80.34
35085;SHT85;21267;51.032;6.998;2022-10-04T20:20:15;14.08;80.42
35085;SHT85;21267;51.032;6.998;2022-10-04T20:31:00;14.02;81.24
35085;SHT85;21267;51.032;6.998;2022-10-04T20:33:49;13.98;80.91
35085;SHT85;21267;51.032;6.998;2022-10-04T20:38:53;13.53;82.70
35085;SHT85;21267;51.032;6.998;2022-10-04T20:52:43;13.10;84.46
35085;SHT85;21267;51.032;6.998;2022-10-04T20:55:22;13.04;84.78
35085;SHT85;21267;51.032;6.998;2022-10-04T20:57:55;12.99;85.14
35085;SHT85;21267;51.032;6.998;2022-10-04T21:00:24;12.96;85.03
35085;SHT85;21267;51.032;6.998;2022-10-04T21:03:16;12.93;84.93
35085;SHT85;21267;51.032;6.998;2022-10-04T21:06:05;13.00;84.75
35085;SHT85;21267;51.032;6.998;2022-10-04T21:08:35;13.00;84.82
35085;SHT85;21267;51.032;6.998;2022-10-04T21:11:12;12.95;84.92
35085;SHT85;21267;51.032;6.998;2022-10-04T21:13:55;12.88;85.13
35085;SHT85;21267;51.032;6.998;2022-10-04T21:16:47;12.83;85.38
35085;SHT85;21267;51.032;6.998;2022-10-04T21:22:05;12.80;85.54
35085;SHT85;21267;51.032;6.998;2022-10-04T21:24:33;12.75;85.70
35085;SHT85;21267;51.032;6.998;2022-10-04T21:27:02;12.75;85.78
35085;SHT85;21267;51.032;6.998;2022-10-04T21:29:29;12.73;85.80
35085;SHT85;21267;51.032;6.998;2022-10-04T21:31:59;12.62;86.18
35085;SHT85;21267;51.032;6.998;2022-10-04T21:34:26;12.55;86.50
35085;SHT85;21267;51.032;6.998;2022-10-04T21:37:14;12.64;86.47
35085;SHT85;21267;51.032;6.998;2022-10-04T21:39:41;12.61;86.52
35085;SHT85;21267;51.032;6.998;2022-10-04T21:42:08;12.58;86.54
35085;SHT85;21267;51.032;6.998;2022-10-04T21:44:35;12.54;86.59
35085;SHT85;21267;51.032;6.998;2022-10-04T21:47:02;12.47;86.83
35085;SHT85;21267;51.032;6.998;2022-10-04T21:49:29;12.47;86.90
35085;SHT85;21267;51.032;6.998;2022-10-04T21:51:57;12.44;87.01
35085;SHT85;21267;51.032;6.998;2022-10-04T21:54:24;12.29;87.32
35085;SHT85;21267;51.032;6.998;2022-10-04T21:56:53;12.37;87.16
35085;SHT85;21267;51.032;6.998;2022-10-04T21:59:20;12.38;87.00
35085;SHT85;21267;51.032;6.998;2022-10-04T22:01:47;12.31;87.06
35085;SHT85;21267;51.032;6.998;2022-10-04T22:04:14;12.27;87.14
35085;SHT85;21267;51.032;6.998;2022-10-04T22:06:41;12.21;87.29
35085;SHT85;21267;51.032;6.998;2022-10-04T22:09:09;12.24;87.30
35085;SHT85;21267;51.032;6.998;2022-10-04T22:11:36;12.16;87.46
35085;SHT85;21267;51.032;6.998;2022-10-04T22:14:03;12.18;87.38
35085;SHT85;21267;51.032;6.998;2022-10-04T22:16:29;12.18;87.57
35085;SHT85;21267;51.032;6.998;2022-10-04T22:18:56;12.16;87.46
35085;SHT85;21267;51.032;6.998;2022-10-04T22:21:23;12.14;87.57
35085;SHT85;21267;51.032;6.998;2022-10-04T22:23:49;12.16;87.45
35085;SHT85;21267;51.032;6.998;2022-10-04T22:26:18;12.17;87.45
35085;SHT85;21267;51.032;6.998;2022-10-04T22:28:50;12.13;87.63
35085;SHT85;21267;51.032;6.998;2022-10-04T22:31:20;12.08;87.71
35085;SHT85;21267;51.032;6.998;2022-10-04T22:33:49;12.08;87.75
35085;SHT85;21267;51.032;6.998;2022-10-04T22:36:31;12.10;87.77
35085;SHT85;21267;51.032;6.998;2022-10-04T22:39:03;12.10;87.78
35085;SHT85;21267;51.032;6.998;2022-10-04T22:41:48;12.07;87.93
35085;SHT85;21267;51.032;6.998;2022-10-04T22:44:22;12.00;87.98
35085;SHT85;21267;51.032;6.998;2022-10-04T22:46:52;12.03;87.98
35085;SHT85;21267;51.032;6.998;2022-10-04T22:49:25;12.00;87.98
35085;SHT85;21267;51.032;6.998;2022-10-04T22:51:54;11.94;88.26
35085;SHT85;21267;51.032;6.998;2022-10-04T22:54:24;11.94;88.21
35085;SHT85;21267;51.032;6.998;2022-10-04T22:56:52;11.90;88.46
35085;SHT85;21267;51.032;6.998;2022-10-04T22:59:20;11.91;88.53
35085;SHT85;21267;51.032;6.998;2022-10-04T23:01:48;11.90;88.52
35085;SHT85;21267;51.032;6.998;2022-10-04T23:04:21;11.85;88.65
35085;SHT85;21267;51.032;6.998;2022-10-04T23:06:49;11.79;88.81
35085;SHT85;21267;51.032;6.998;2022-10-04T23:09:16;11.76;89.02
35085;SHT85;21267;51.032;6.998;2022-10-04T23:11:43;11.80;88.82
35085;SHT85;21267;51.032;6.998;2022-10-04T23:14:10;11.73;89.11
35085;SHT85;21267;51.032;6.998;2022-10-04T23:16:37;11.73;89.14
35085;SHT85;21267;51.032;6.998;2022-10-04T23:21:36;11.73;89.21
35085;SHT85;21267;51.032;6.998;2022-10-04T23:24:22;11.71;89.37
35085;SHT85;21267;51.032;6.998;2022-10-04T23:26:53;11.66;89.52
35085;SHT85;21267;51.032;6.998;2022-10-04T23:29:25;11.62;89.81
35085;SHT85;21267;51.032;6.998;2022-10-04T23:31:54;11.59;89.89
35085;SHT85;21267;51.032;6.998;2022-10-04T23:34:28;11.60;90.01
35085;SHT85;21267;51.032;6.998;2022-10-04T23:36:56;11.62;90.07
35085;SHT85;21267;51.032;6.998;2022-10-04T23:39:26;11.55;90.35
35085;SHT85;21267;51.032;6.998;2022-10-04T23:41:54;11.66;90.13
35085;SHT85;21267;51.032;6.998;2022-10-04T23:44:22;11.56;90.36
35085;SHT85;21267;51.032;6.998;2022-10-04T23:46:50;11.59;90.24
35085;SHT85;21267;51.032;6.998;2022-10-04T23:49:19;11.58;90.16
35085;SHT85;21267;51.032;6.998;2022-10-04T23:51:46;11.59;90.20
35085;SHT85;21267;51.032;6.998;2022-10-04T23:54:17;11.59;90.23
35085;SHT85;21267;51.032;6.998;2022-10-04T23:56:46;11.58;90.26
